Time;durP1;ratioP1;P1;durP2;ratioP2;P2;SDS_P1;SDS_P2;PMS_P1;PMS_P2;Temp;Humidity;BMP_temperature;BMP_pressure;BME280_temperature;BME280_humidity;BME280_pressure;Samples;Min_cycle;Max_cycle;Signal;HPM_P1;HPM_P2
2023/08/12 00:00:07;;;;;;;5.28;4.78;;;;;;;22.99;61.90;100195.72;5057126;28;20035;-64
2023/08/12 00:02:32;;;;;;;6.35;4.70;;;;;;;23.13;61.60;100194.44;5058738;28;20048;-64
2023/08/12 00:04:58;;;;;;;4.85;4.38;;;;;;;23.20;61.53;100205.16;5057799;28;20033;-64
2023/08/12 00:07:24;;;;;;;5.20;4.25;;;;;;;23.22;61.59;100198.47;5059051;28;20041;-64
2023/08/12 00:09:49;;;;;;;5.00;4.50;;;;;;;23.30;61.17;100197.28;5059358;28;20035;-64
2023/08/12 00:12:15;;;;;;;4.70;4.07;;;;;;;23.29;61.29;100200.22;5059029;28;20029;-64
2023/08/12 00:14:40;;;;;;;4.60;4.20;;;;;;;23.33;60.83;100199.53;5059282;28;20406;-64
2023/08/12 00:17:06;;;;;;;4.13;3.70;;;;;;;23.07;61.14;100199.97;5057771;28;20068;-64
2023/08/12 00:19:31;;;;;;;5.82;4.30;;;;;;;23.04;61.05;100193.16;5059792;28;20045;-64
2023/08/12 00:21:57;;;;;;;4.00;3.60;;;;;;;23.12;60.93;100200.09;5059429;28;20033;-64
2023/08/12 00:24:22;;;;;;;3.90;3.55;;;;;;;23.11;60.95;100195.75;5059218;28;20037;-64
2023/08/12 00:26:49;;;;;;;7.20;4.15;;;;;;;23.07;60.87;100195.38;5057971;28;20033;-64
2023/08/12 00:29:14;;;;;;;4.93;4.15;;;;;;;23.06;60.90;100196.44;5057935;28;20060;-65
2023/08/12 00:31:40;;;;;;;4.05;3.65;;;;;;;23.16;60.49;100191.28;5058919;28;20216;-64
2023/08/12 00:34:05;;;;;;;4.80;3.80;;;;;;;23.10;60.65;100181.41;5059380;28;20567;-65
2023/08/12 00:36:31;;;;;;;4.90;3.45;;;;;;;23.13;60.79;100193.63;5058048;28;20028;-63
2023/08/12 00:38:56;;;;;;;4.47;4.00;;;;;;;23.07;60.58;100178.34;5058866;28;20037;-64
2023/08/12 00:41:22;;;;;;;4.45;3.75;;;;;;;23.06;60.68;100184.81;5058427;28;20040;-65
2023/08/12 00:43:47;;;;;;;3.97;3.58;;;;;;;23.08;60.94;100191.63;5058557;28;20063;-64
2023/08/12 00:46:13;;;;;;;4.95;3.75;;;;;;;23.01;60.71;100192.78;5057416;28;20037;-64
2023/08/12 00:48:40;;;;;;;3.95;3.65;;;;;;;22.82;61.59;100197.41;5058568;28;20047;-64
2023/08/12 00:51:05;;;;;;;4.63;4.10;;;;;;;22.83;61.88;100199.06;5058368;28;20322;-64
2023/08/12 00:53:31;;;;;;;5.53;4.22;;;;;;;22.82;62.01;100208.22;5058809;28;20037;-64
2023/08/12 00:55:57;;;;;;;6.65;3.90;;;;;;;22.91;61.91;100201.47;5057367;28;20053;-64
2023/08/12 00:58:23;;;;;;;5.03;4.28;;;;;;;22.72;62.58;100206.03;5059078;28;20028;-64
2023/08/12 01:00:50;;;;;;;5.03;4.13;;;;;;;22.67;62.98;100207.78;5058142;28;20056;-64
2023/08/12 01:03:15;;;;;;;4.35;3.95;;;;;;;22.56;63.68;100201.28;5059559;28;20040;-64
2023/08/12 01:05:41;;;;;;;5.53;4.00;;;;;;;22.49;64.22;100197.88;5057291;28;20204;-64
2023/08/12 01:08:07;;;;;;;5.85;3.95;;;;;;;22.59;64.07;100201.66;5058534;28;20072;-64
2023/08/12 01:10:35;;;;;;;3.92;3.47;;;;;;;22.66;63.51;100198.03;5057914;28;20890;-64
2023/08/12 01:13:13;;;;;;;5.93;3.55;;;;;;;22.76;63.43;100198.31;5057294;28;20017;-64
2023/08/12 01:15:40;;;;;;;4.95;3.58;;;;;;;22.87;63.10;100198.38;5057613;28;20047;-64
2023/08/12 01:18:07;;;;;;;4.28;3.95;;;;;;;22.92;62.84;100197.72;5057981;28;20090;-64
2023/08/12 01:20:33;;;;;;;5.25;4.13;;;;;;;22.85;63.47;100192.38;5058107;28;20052;-64
2023/08/12 01:23:13;;;;;;;5.13;3.95;;;;;;;22.47;64.91;100194.56;5057590;28;20550;-63
2023/08/12 01:25:38;;;;;;;5.07;4.05;;;;;;;22.35;65.62;100196.41;5057722;28;20064;-64
2023/08/12 01:28:05;;;;;;;4.40;4.00;;;;;;;22.37;65.72;100186.22;5057642;28;20068;-64
2023/08/12 01:30:32;;;;;;;5.60;4.30;;;;;;;22.37;66.14;100180.81;5057968;28;20345;-64
2023/08/12 01:33:42;;;;;;;3.88;3.55;;;;;;;22.41;65.93;100187.41;5057732;28;20045;-64
2023/08/12 01:36:17;;;;;;;5.35;4.60;;;;;;;21.99;67.73;100189.97;4976932;28;20050;-64
2023/08/12 01:38:43;;;;;;;5.07;4.57;;;;;;;21.92;68.69;100189.22;5050431;28;20306;-64
2023/08/12 01:41:11;;;;;;;4.95;4.55;;;;;;;21.97;68.51;100189.38;5057429;28;20384;-64
2023/08/12 01:43:38;;;;;;;7.70;4.85;;;;;;;21.89;69.00;100178.91;5056890;28;20178;-64
2023/08/12 01:46:04;;;;;;;5.70;4.65;;;;;;;21.87;69.31;100183.69;5056578;28;20071;-64
2023/08/12 01:48:29;;;;;;;5.22;3.97;;;;;;;21.85;69.62;100180.41;5057597;28;20021;-64
2023/08/12 01:50:55;;;;;;;5.47;4.45;;;;;;;21.89;69.53;100182.41;5057152;28;20033;-65
2023/08/12 01:53:20;;;;;;;4.57;4.10;;;;;;;21.95;69.27;100189.59;5057394;28;20044;-64
2023/08/12 01:55:47;;;;;;;4.60;4.18;;;;;;;21.90;69.39;100183.25;5056754;28;20051;-64
2023/08/12 01:58:12;;;;;;;4.35;3.95;;;;;;;21.76;70.35;100187.09;5057014;28;20071;-64
2023/08/12 02:00:38;;;;;;;5.55;4.63;;;;;;;21.36;71.81;100176.72;5057126;28;20041;-64
2023/08/12 02:03:04;;;;;;;4.50;4.10;;;;;;;21.49;71.85;100182.00;5056895;28;20037;-64
2023/08/12 02:05:29;;;;;;;4.78;4.28;;;;;;;21.51;71.81;100187.16;5057499;28;20033;-64
2023/08/12 02:07:55;;;;;;;5.30;4.20;;;;;;;21.50;71.94;100185.50;5056855;28;20103;-64
2023/08/12 02:10:20;;;;;;;5.07;4.45;;;;;;;21.45;72.35;100193.44;5058364;28;20349;-64
2023/08/12 02:12:46;;;;;;;6.22;4.07;;;;;;;21.41;72.64;100194.94;5056405;28;20047;-64
2023/08/12 02:15:11;;;;;;;8.30;4.25;;;;;;;21.41;72.82;100186.84;5057175;28;20033;-64
2023/08/12 02:17:37;;;;;;;5.90;4.60;;;;;;;21.49;72.49;100186.56;5057018;28;20040;-65
2023/08/12 02:20:04;;;;;;;5.03;4.53;;;;;;;21.50;72.21;100189.03;5057411;28;20040;-64
2023/08/12 02:22:29;;;;;;;4.53;4.13;;;;;;;21.58;71.77;100194.13;5056508;28;20040;-64
2023/08/12 02:24:55;;;;;;;3.95;3.65;;;;;;;21.50;71.80;100189.03;5056832;28;20033;-64
2023/08/12 02:27:21;;;;;;;5.03;4.40;;;;;;;21.56;71.42;100196.22;5056883;28;20036;-65
2023/08/12 02:29:46;;;;;;;4.53;4.13;;;;;;;21.57;71.49;100192.47;5057598;28;20116;-64
2023/08/12 02:32:12;;;;;;;5.30;4.80;;;;;;;21.58;71.22;100194.13;5057589;28;20056;-64
2023/08/12 02:34:37;;;;;;;4.50;4.10;;;;;;;21.40;71.75;100199.50;5056899;28;20334;-64
2023/08/12 02:37:03;;;;;;;4.07;3.60;;;;;;;21.44;71.90;100198.00;5057195;28;20033;-64
2023/08/12 02:39:28;;;;;;;5.13;4.30;;;;;;;21.53;71.20;100191.28;5056816;28;20361;-64
2023/08/12 02:41:54;;;;;;;4.20;3.80;;;;;;;21.68;70.52;100186.34;5056614;28;20314;-64
2023/08/12 02:44:19;;;;;;;4.50;4.05;;;;;;;21.66;70.21;100196.53;5055876;28;20044;-64
2023/08/12 02:46:45;;;;;;;4.72;3.85;;;;;;;21.70;70.10;100199.59;5056599;28;20041;-64
2023/08/12 02:49:10;;;;;;;5.53;4.10;;;;;;;21.55;70.12;100196.44;5055136;28;20037;-64
2023/08/12 02:51:36;;;;;;;4.50;4.07;;;;;;;21.76;69.42;100208.66;5056375;28;20044;-64
2023/08/12 02:54:02;;;;;;;5.47;3.75;;;;;;;21.67;70.09;100213.53;5056209;28;20364;-64
2023/08/12 02:56:27;;;;;;;5.90;3.85;;;;;;;21.80;69.55;100210.69;5054846;28;20339;-64
2023/08/12 02:58:53;;;;;;;4.95;4.13;;;;;;;21.81;69.37;100216.91;5056663;28;20100;-64
2023/08/12 03:01:21;;;;;;;6.45;4.03;;;;;;;21.84;69.52;100217.28;5056589;28;20051;-65
2023/08/12 03:03:46;;;;;;;4.30;3.70;;;;;;;21.90;68.91;100212.91;5057232;28;20334;-65
2023/08/12 03:06:12;;;;;;;5.97;4.03;;;;;;;21.94;68.91;100217.63;5056416;28;20056;-65
2023/08/12 03:08:38;;;;;;;6.25;4.35;;;;;;;22.02;68.66;100207.56;5057148;28;20037;-64
2023/08/12 03:11:03;;;;;;;6.55;4.05;;;;;;;21.94;69.05;100211.41;5055286;28;20036;-65
2023/08/12 03:13:30;;;;;;;5.32;4.07;;;;;;;22.03;68.53;100218.16;5056897;28;20033;-65
2023/08/12 03:15:56;;;;;;;5.43;4.00;;;;;;;21.98;68.65;100220.69;5055986;28;20033;-65
2023/08/12 03:18:21;;;;;;;6.03;4.40;;;;;;;21.91;68.83;100218.06;5057433;28;20188;-65
2023/08/12 03:20:47;;;;;;;4.43;3.90;;;;;;;21.98;68.85;100215.28;5037526;28;20095;-62
2023/08/12 03:23:13;;;;;;;4.35;3.97;;;;;;;22.03;68.29;100220.03;5057242;28;20062;-64
2023/08/12 03:25:38;;;;;;;5.90;4.78;;;;;;;22.00;68.43;100221.28;5056569;28;20380;-64
2023/08/12 03:28:04;;;;;;;5.47;3.95;;;;;;;21.94;68.70;100217.63;5055913;28;20108;-65
2023/08/12 03:30:31;;;;;;;5.32;3.72;;;;;;;22.01;68.25;100214.03;5056649;28;20032;-65
2023/08/12 03:32:56;;;;;;;6.50;4.55;;;;;;;21.98;68.11;100218.81;5056197;28;20037;-64
2023/08/12 03:35:22;;;;;;;4.13;3.83;;;;;;;21.99;67.85;100219.63;5059524;28;20044;-64
2023/08/12 03:37:47;;;;;;;6.28;3.72;;;;;;;21.98;67.88;100228.78;5058652;28;20052;-64
2023/08/12 03:40:13;;;;;;;5.07;3.88;;;;;;;21.81;68.66;100225.00;5059820;28;20045;-64
2023/08/12 03:42:38;;;;;;;5.82;3.72;;;;;;;21.57;70.20;100226.69;5059402;28;20075;-64
2023/08/12 03:45:04;;;;;;;5.68;3.80;;;;;;;21.53;70.25;100231.69;5060606;28;20106;-64
2023/08/12 03:47:30;;;;;;;7.43;4.03;;;;;;;21.60;70.11;100227.06;5059886;28;20045;-64
2023/08/12 03:49:55;;;;;;;8.15;3.78;;;;;;;21.62;70.15;100230.38;5060221;28;20035;-63
2023/08/12 03:52:21;;;;;;;4.20;3.78;;;;;;;21.66;70.00;100231.56;5059568;28;20246;-64
2023/08/12 03:54:46;;;;;;;4.82;4.13;;;;;;;21.40;71.48;100247.97;5059408;28;20040;-64
2023/08/12 03:57:12;;;;;;;5.45;3.88;;;;;;;21.45;70.92;100234.66;5042721;28;20304;-64
2023/08/12 03:59:37;;;;;;;6.75;3.90;;;;;;;21.51;70.71;100243.75;5080633;28;20044;-64
2023/08/12 04:02:03;;;;;;;9.00;3.80;;;;;;;21.63;70.03;100239.28;5064708;28;20318;-64
2023/08/12 04:04:29;;;;;;;5.03;3.45;;;;;;;21.47;70.67;100239.84;5059581;28;20337;-64
2023/08/12 04:06:55;;;;;;;8.10;3.92;;;;;;;21.21;71.75;100243.56;5057827;28;20040;-64
2023/08/12 04:09:20;;;;;;;4.28;3.88;;;;;;;21.38;71.41;100236.59;5058412;28;20033;-64
2023/08/12 04:11:46;;;;;;;5.70;3.75;;;;;;;21.45;71.15;100250.84;5058402;28;20040;-64
2023/08/12 04:16:49;;;;;;;4.20;3.40;;;;;;;21.38;70.89;100249.25;5136763;23;20057;-64
2023/08/12 04:19:14;;;;;;;4.03;3.70;;;;;;;21.38;71.20;100251.94;5039647;28;20195;-64
2023/08/12 04:21:40;;;;;;;7.25;4.55;;;;;;;21.27;71.75;100256.16;5009000;28;20030;-64
2023/08/12 04:24:06;;;;;;;6.13;3.40;;;;;;;21.34;71.19;100255.06;4999245;28;20041;-64
2023/08/12 04:26:31;;;;;;;9.30;4.35;;;;;;;21.34;71.46;100255.06;4998217;28;20477;-64
2023/08/12 04:28:57;;;;;;;8.65;4.05;;;;;;;21.33;71.87;100252.59;4999587;28;20044;-64
2023/08/12 04:31:22;;;;;;;5.30;3.72;;;;;;;21.34;71.93;100254.25;4998463;28;20080;-64
2023/08/12 04:33:49;;;;;;;7.35;3.80;;;;;;;21.33;71.66;100252.59;4999480;28;20045;-64
2023/08/12 04:36:14;;;;;;;3.63;3.33;;;;;;;21.14;73.13;100258.94;4998829;28;20057;-64
2023/08/12 04:38:40;;;;;;;3.78;3.38;;;;;;;21.15;73.07;100255.19;4999101;28;20039;-65
2023/08/12 04:41:05;;;;;;;3.63;3.33;;;;;;;21.23;72.42;100253.09;4999361;28;20057;-64
2023/08/12 04:43:31;;;;;;;5.03;3.58;;;;;;;21.14;73.09;100253.53;4999330;28;20040;-64
2023/08/12 04:45:56;;;;;;;6.28;3.80;;;;;;;21.33;72.50;100256.13;4998184;28;20045;-64
2023/08/12 04:48:22;;;;;;;7.82;4.03;;;;;;;21.46;71.76;100265.97;4999503;28;20056;-64
2023/08/12 04:50:47;;;;;;;5.85;3.83;;;;;;;21.52;71.20;100256.16;4998300;28;20042;-64
2023/08/12 04:53:12;;;;;;;6.20;3.95;;;;;;;21.61;70.80;100271.84;4998073;28;20034;-64
2023/08/12 04:55:38;;;;;;;3.85;3.50;;;;;;;21.56;70.63;100268.97;4998418;28;20050;-65
2023/08/12 04:58:04;;;;;;;5.35;3.28;;;;;;;21.18;72.64;100268.22;4998927;28;20040;-64
2023/08/12 05:00:30;;;;;;;5.13;3.92;;;;;;;21.12;73.80;100274.47;4998376;28;20047;-64
2023/08/12 05:02:55;;;;;;;5.78;4.07;;;;;;;21.26;73.28;100276.06;4996630;28;20045;-64
2023/08/12 05:05:20;;;;;;;7.88;5.68;;;;;;;21.20;73.64;100266.97;4998858;28;20038;-64
2023/08/12 05:07:49;;;;;;;9.00;5.72;;;;;;;21.35;73.42;100253.19;4998524;28;20409;-64
2023/08/12 05:10:17;;;;;;;9.68;8.48;;;;;;;21.43;73.46;100266.41;4998047;28;20057;-64
2023/08/12 05:12:44;;;;;;;16.67;11.02;;;;;;;21.48;72.27;100268.44;4998552;28;20210;-64
2023/08/12 05:15:10;;;;;;;15.63;13.18;;;;;;;21.61;71.91;100269.13;4997268;28;20065;-64
2023/08/12 05:17:36;;;;;;;22.05;9.25;;;;;;;21.61;70.93;100269.13;4998122;28;20064;-64
2023/08/12 05:20:01;;;;;;;28.20;7.70;;;;;;;21.53;71.57;100272.13;4998238;28;20331;-64
2023/08/12 05:22:27;;;;;;;21.63;8.88;;;;;;;21.56;70.87;100270.84;4998206;28;20098;-64
2023/08/12 05:24:52;;;;;;;18.08;5.20;;;;;;;21.77;70.65;100266.91;4999453;28;20046;-65
2023/08/12 05:27:18;;;;;;;14.38;6.10;;;;;;;21.85;69.89;100258.56;4998678;28;20034;-64
2023/08/12 05:29:43;;;;;;;12.88;5.32;;;;;;;21.92;69.23;100270.94;4998347;28;20050;-65
2023/08/12 05:32:08;;;;;;;9.18;5.55;;;;;;;21.90;69.62;100278.44;4998788;28;20053;-65
2023/08/12 05:34:34;;;;;;;7.90;5.28;;;;;;;21.92;68.43;100281.72;4998968;28;20053;-64
2023/08/12 05:36:59;;;;;;;5.97;3.30;;;;;;;21.89;67.84;100276.78;4998453;28;20034;-64
2023/08/12 05:39:25;;;;;;;5.07;3.88;;;;;;;21.85;67.46;100277.44;4998051;28;20050;-64
2023/08/12 05:41:52;;;;;;;8.98;4.35;;;;;;;21.70;67.88;100275.06;4998032;28;20082;-64
2023/08/12 05:44:17;;;;;;;8.27;4.35;;;;;;;21.83;67.25;100272.25;4998336;28;20277;-65
2023/08/12 05:46:43;;;;;;;6.88;4.53;;;;;;;21.81;67.61;100273.50;4997032;28;20049;-65
2023/08/12 05:49:08;;;;;;;9.38;4.63;;;;;;;21.92;67.53;100268.25;4997111;28;20050;-64
2023/08/12 05:51:34;;;;;;;8.07;4.80;;;;;;;21.82;67.91;100269.78;4998168;28;20038;-65
2023/08/12 05:53:59;;;;;;;20.65;5.10;;;;;;;21.76;67.81;100260.69;4998509;28;20071;-64
2023/08/12 05:56:25;;;;;;;7.63;4.32;;;;;;;21.86;67.46;100265.63;4997817;28;20343;-64
2023/08/12 05:58:50;;;;;;;6.57;4.22;;;;;;;21.73;67.94;100263.84;4998308;28;20227;-65
2023/08/12 06:01:15;;;;;;;6.05;3.90;;;;;;;21.94;68.07;100266.16;4998577;28;20045;-64
2023/08/12 06:03:41;;;;;;;8.70;4.38;;;;;;;21.82;68.16;100262.50;4998769;28;20467;-64
2023/08/12 06:06:06;;;;;;;9.15;4.05;;;;;;;21.78;67.96;100261.31;4998392;28;20221;-65
2023/08/12 06:08:32;;;;;;;9.00;3.88;;;;;;;21.93;67.68;100261.81;4998609;28;20323;-65
2023/08/12 06:10:57;;;;;;;10.63;4.55;;;;;;;22.10;66.95;100258.53;4998296;28;20038;-65
2023/08/12 06:13:23;;;;;;;10.63;4.97;;;;;;;22.22;67.00;100259.44;4998317;28;20053;-65
2023/08/12 06:15:48;;;;;;;11.55;5.03;;;;;;;22.32;66.27;100258.91;4996608;28;20671;-64
2023/08/12 06:18:13;;;;;;;13.35;5.72;;;;;;;22.49;65.52;100259.94;4998986;28;20080;-64
2023/08/12 06:20:39;;;;;;;9.80;4.45;;;;;;;22.63;64.76;100258.72;4998959;28;20077;-65
2023/08/12 06:23:04;;;;;;;9.15;4.55;;;;;;;23.00;63.82;100255.97;4998070;28;20036;-64
2023/08/12 06:25:30;;;;;;;8.43;3.90;;;;;;;23.55;62.59;100257.38;4998667;28;20045;-65
2023/08/12 06:27:55;;;;;;;6.78;4.13;;;;;;;24.00;60.25;100248.69;4998368;28;20038;-65
2023/08/12 06:30:21;;;;;;;3.97;3.40;;;;;;;24.45;58.32;100243.41;4997642;28;20050;-65
2023/08/12 06:32:46;;;;;;;5.03;3.15;;;;;;;24.65;55.38;100242.16;4998179;28;20161;-64
2023/08/12 06:35:12;;;;;;;5.97;3.47;;;;;;;24.80;54.63;100245.16;4997766;28;20381;-65
2023/08/12 06:37:37;;;;;;;4.15;3.30;;;;;;;25.07;54.33;100240.81;4997810;28;20042;-65
2023/08/12 06:40:03;;;;;;;6.30;3.88;;;;;;;25.05;53.95;100247.53;4998128;28;20042;-65
2023/08/12 06:42:29;;;;;;;3.65;2.67;;;;;;;25.25;52.36;100238.94;4997893;28;20038;-65
2023/08/12 06:44:57;;;;;;;8.40;3.50;;;;;;;25.52;51.91;100239.09;4998200;28;20371;-64
2023/08/12 06:47:22;;;;;;;5.55;3.00;;;;;;;25.81;50.26;100246.06;4998226;28;20038;-65
2023/08/12 06:49:48;;;;;;;4.75;2.92;;;;;;;26.03;49.08;100227.13;4998395;28;20068;-64
2023/08/12 06:52:13;;;;;;;3.40;2.80;;;;;;;26.17;47.92;100233.00;5005863;28;20038;-65
2023/08/12 06:54:39;;;;;;;3.20;2.90;;;;;;;26.04;47.51;100231.47;5014010;28;20208;-65
2023/08/12 06:57:04;;;;;;;3.47;2.65;;;;;;;26.43;47.22;100237.69;5017298;28;20120;-65
2023/08/12 06:59:30;;;;;;;3.90;2.60;;;;;;;26.60;46.91;100234.88;5017186;28;20119;-64
2023/08/12 07:01:55;;;;;;;4.93;3.03;;;;;;;26.65;46.14;100227.59;5017156;28;20271;-65
2023/08/12 07:04:21;;;;;;;4.93;2.95;;;;;;;26.90;46.32;100237.09;5017472;28;20610;-65
2023/08/12 07:06:47;;;;;;;3.35;2.55;;;;;;;27.10;44.50;100231.06;5006454;28;20461;-65
2023/08/12 07:09:12;;;;;;;6.68;3.40;;;;;;;27.29;43.53;100235.03;5001200;28;20116;-65
2023/08/12 07:11:38;;;;;;;4.40;2.90;;;;;;;27.38;43.01;100229.94;4999750;28;20038;-65
2023/08/12 07:14:04;;;;;;;3.17;2.80;;;;;;;27.67;42.26;100225.81;5000729;28;20297;-65
2023/08/12 07:16:30;;;;;;;5.60;2.67;;;;;;;27.89;42.27;100225.66;4999227;28;19921;-65
2023/08/12 07:18:55;;;;;;;5.43;2.60;;;;;;;27.93;40.60;100221.31;5000584;28;20034;-65
2023/08/12 07:21:20;;;;;;;3.45;2.80;;;;;;;27.50;41.37;100225.94;5001270;28;20046;-64
2023/08/12 07:23:46;;;;;;;3.58;2.83;;;;;;;27.60;41.57;100222.47;5000957;28;20038;-65
2023/08/12 07:26:11;;;;;;;5.40;3.78;;;;;;;27.84;41.07;100221.00;5000977;28;20046;-65
2023/08/12 07:28:37;;;;;;;3.05;2.42;;;;;;;28.07;40.12;100227.91;5001232;28;20335;-65
2023/08/12 07:31:02;;;;;;;3.67;2.80;;;;;;;28.32;39.72;100232.72;5001548;28;20045;-64
2023/08/12 07:33:28;;;;;;;3.13;2.63;;;;;;;28.28;38.64;100221.53;5001421;28;20350;-65
2023/08/12 07:35:53;;;;;;;2.92;2.60;;;;;;;28.40;39.34;100221.28;5001832;28;20357;-65
2023/08/12 07:38:19;;;;;;;4.70;2.70;;;;;;;28.69;39.22;100226.25;5000820;28;20034;-65
2023/08/12 07:40:44;;;;;;;3.65;2.60;;;;;;;28.69;38.13;100215.38;5000907;28;20397;-65
2023/08/12 07:43:09;;;;;;;3.67;2.80;;;;;;;28.81;38.13;100215.94;5000491;28;20104;-65
2023/08/12 07:45:35;;;;;;;6.65;3.30;;;;;;;29.07;37.89;100203.16;5000204;28;20040;-65
2023/08/12 07:48:00;;;;;;;3.35;2.70;;;;;;;29.02;37.62;100214.88;5001476;28;20282;-65
2023/08/12 07:50:26;;;;;;;2.65;2.42;;;;;;;29.00;36.62;100211.63;5001104;28;20046;-65
2023/08/12 07:52:51;;;;;;;3.65;2.70;;;;;;;28.95;37.98;100211.63;5000487;28;20057;-65
2023/08/12 07:55:18;;;;;;;2.60;2.40;;;;;;;29.09;36.96;100206.44;4999087;28;20061;-65
2023/08/12 07:57:44;;;;;;;4.30;2.40;;;;;;;29.27;36.86;100207.81;5000146;28;20042;-65
2023/08/12 08:00:11;;;;;;;3.83;2.65;;;;;;;29.29;37.11;100200.19;5000105;28;20046;-65
2023/08/12 08:02:37;;;;;;;4.25;2.50;;;;;;;29.26;36.35;100200.72;5000210;28;20185;-65
2023/08/12 08:05:03;;;;;;;3.22;2.75;;;;;;;29.45;36.70;100201.81;5000460;28;20402;-65
2023/08/12 08:07:28;;;;;;;2.80;2.33;;;;;;;29.68;36.18;100190.31;5000440;28;20469;-65
2023/08/12 08:09:54;;;;;;;3.25;2.30;;;;;;;29.72;35.83;100198.75;5000012;28;20290;-65
2023/08/12 08:12:19;;;;;;;7.35;3.47;;;;;;;29.84;35.66;100202.00;5000081;28;20213;-66
2023/08/12 08:14:45;;;;;;;4.38;3.15;;;;;;;30.13;36.15;100191.25;4999468;28;20050;-65
2023/08/12 08:17:10;;;;;;;2.78;2.55;;;;;;;30.14;35.36;100193.72;5000018;28;20061;-65
2023/08/12 08:19:36;;;;;;;4.85;2.92;;;;;;;30.32;35.75;100188.75;5000564;28;20593;-65
2023/08/12 08:22:01;;;;;;;2.53;2.33;;;;;;;30.27;34.69;100186.84;5000662;28;20042;-65
2023/08/12 08:24:28;;;;;;;2.72;2.45;;;;;;;30.30;33.54;100182.75;4999558;28;20042;-65
2023/08/12 08:26:54;;;;;;;2.95;2.28;;;;;;;30.27;34.38;100186.03;4999532;28;20041;-65
2023/08/12 08:29:19;;;;;;;3.67;2.20;;;;;;;30.35;33.14;100180.78;4999468;28;20045;-65
2023/08/12 08:31:44;;;;;;;4.93;2.45;;;;;;;30.38;32.94;100188.41;4999753;28;20037;-65
2023/08/12 08:34:10;;;;;;;2.78;1.98;;;;;;;30.48;34.18;100184.81;5000914;28;20254;-65
2023/08/12 08:36:36;;;;;;;3.03;2.38;;;;;;;30.65;34.44;100181.72;5000781;28;20042;-65
2023/08/12 08:39:02;;;;;;;4.13;1.92;;;;;;;30.82;34.83;100184.88;4999798;28;20262;-65
2023/08/12 08:41:30;;;;;;;5.53;2.10;;;;;;;30.95;32.53;100167.00;5000223;28;20040;-65
2023/08/12 08:44:02;;;;;;;4.18;1.85;;;;;;;30.93;31.87;100170.03;4999795;28;20366;-65
2023/08/12 08:46:28;;;;;;;2.30;2.08;;;;;;;30.94;32.83;100171.66;4999612;28;20485;-65
2023/08/12 08:48:54;;;;;;;2.20;2.00;;;;;;;30.93;30.82;100169.19;5000011;28;20362;-65
2023/08/12 08:51:20;;;;;;;4.63;2.67;;;;;;;31.05;30.88;100161.44;4999193;28;20132;-65
2023/08/12 08:53:47;;;;;;;3.05;2.58;;;;;;;31.08;31.37;100164.41;4999198;28;20058;-66
2023/08/12 08:56:12;;;;;;;3.50;2.30;;;;;;;30.93;33.13;100163.75;4999857;28;20226;-65
2023/08/12 08:58:39;;;;;;;3.80;2.30;;;;;;;30.86;31.00;100158.59;4999567;28;20034;-65
2023/08/12 09:01:06;;;;;;;2.78;1.85;;;;;;;30.93;29.65;100155.53;4999219;28;20038;-65
2023/08/12 09:03:36;;;;;;;2.42;1.98;;;;;;;30.81;29.47;100147.69;5000169;28;20279;-65
2023/08/12 09:06:03;;;;;;;3.45;2.05;;;;;;;30.89;30.72;100151.75;4997923;28;20149;-65
2023/08/12 09:08:31;;;;;;;2.17;1.85;;;;;;;31.02;30.98;100143.69;4999309;28;20034;-65
2023/08/12 09:10:58;;;;;;;2.10;1.85;;;;;;;30.98;29.82;100142.63;4998534;28;20042;-66
2023/08/12 09:13:23;;;;;;;3.95;2.90;;;;;;;31.05;31.25;100140.38;4999248;28;20054;-65
2023/08/12 09:15:49;;;;;;;2.63;2.20;;;;;;;30.98;31.69;100137.16;4999027;28;20050;-65
2023/08/12 09:18:16;;;;;;;2.03;1.92;;;;;;;31.03;31.03;100128.91;4998252;28;20030;-65
2023/08/12 09:20:43;;;;;;;2.83;2.20;;;;;;;31.14;31.21;100132.38;4999247;28;20100;-65
2023/08/12 09:23:10;;;;;;;2.70;2.50;;;;;;;31.20;31.04;100122.22;4999596;28;20045;-66
2023/08/12 09:25:41;;;;;;;4.20;2.17;;;;;;;31.25;31.40;100120.28;4997950;28;20042;-66
2023/08/12 09:28:09;;;;;;;2.47;2.22;;;;;;;31.32;30.65;100108.97;4999171;28;20097;-65
2023/08/12 09:30:34;;;;;;;3.08;2.40;;;;;;;31.30;31.90;100114.75;4998397;28;20322;-65
2023/08/12 09:33:04;;;;;;;2.55;1.98;;;;;;;31.26;30.53;100107.41;4997272;28;20382;-65
2023/08/12 09:35:50;;;;;;;3.92;2.20;;;;;;;31.17;30.33;100103.66;4998975;28;20046;-65
2023/08/12 09:38:15;;;;;;;2.03;1.85;;;;;;;31.08;29.33;100106.16;4997636;28;20276;-65
2023/08/12 09:40:41;;;;;;;3.85;2.00;;;;;;;30.93;29.54;100103.56;4998065;28;20042;-65
2023/08/12 09:43:06;;;;;;;2.00;1.90;;;;;;;30.37;29.77;100102.09;4998662;28;20239;-66
2023/08/12 09:45:33;;;;;;;2.65;1.77;;;;;;;30.40;30.11;100093.31;4998660;28;20069;-65
2023/08/12 09:47:59;;;;;;;2.45;1.90;;;;;;;30.16;30.18;100092.38;4998611;28;20335;-65
2023/08/12 09:50:26;;;;;;;3.95;2.30;;;;;;;30.15;29.92;100086.09;4998634;28;20056;-65
2023/08/12 09:52:53;;;;;;;2.72;2.10;;;;;;;29.93;30.37;100087.56;5000425;28;20049;-65
2023/08/12 09:55:20;;;;;;;2.30;2.10;;;;;;;30.05;31.47;100088.91;4997884;28;20050;-65
2023/08/12 09:57:49;;;;;;;2.83;2.42;;;;;;;29.88;30.68;100089.22;4999496;28;20042;-65
2023/08/12 10:00:18;;;;;;;2.35;2.15;;;;;;;30.01;30.80;100090.56;4998549;28;20042;-65
2023/08/12 10:02:45;;;;;;;3.17;2.30;;;;;;;29.80;31.79;100080.81;4997781;28;20041;-65
2023/08/12 10:05:15;;;;;;;2.92;2.35;;;;;;;29.80;30.99;100081.63;4998904;28;20038;-65
2023/08/12 10:07:41;;;;;;;2.22;2.03;;;;;;;29.56;31.52;100072.47;4999388;28;20061;-65
2023/08/12 10:10:09;;;;;;;2.92;2.20;;;;;;;29.48;31.94;100078.50;4996781;28;20319;-65
2023/08/12 10:12:35;;;;;;;2.78;2.28;;;;;;;29.50;31.34;100070.84;4998126;28;20026;-66
2023/08/12 10:15:01;;;;;;;2.40;2.20;;;;;;;29.37;31.67;100076.88;4997008;28;20117;-65
2023/08/12 10:17:27;;;;;;;2.20;2.00;;;;;;;29.14;31.66;100072.84;4998178;28;20117;-65
2023/08/12 10:19:57;;;;;;;2.25;2.00;;;;;;;29.27;32.00;100072.28;4998676;28;20303;-65
2023/08/12 10:22:25;;;;;;;3.45;2.42;;;;;;;29.30;31.74;100059.97;4999287;28;20042;-65
2023/08/12 10:24:51;;;;;;;3.88;2.13;;;;;;;29.39;31.42;100058.31;4997716;28;20389;-65
2023/08/12 10:27:18;;;;;;;3.08;2.05;;;;;;;29.43;31.55;100059.44;4997390;28;20038;-65
2023/08/12 10:29:43;;;;;;;4.13;2.20;;;;;;;29.50;31.83;100059.94;4997774;28;20050;-65
2023/08/12 10:32:09;;;;;;;2.38;2.17;;;;;;;29.49;31.51;100047.41;4998839;28;20115;-67
2023/08/12 10:34:35;;;;;;;2.90;2.40;;;;;;;29.51;31.50;100047.94;4998444;28;20050;-67
2023/08/12 10:37:03;;;;;;;16.15;2.78;;;;;;;29.53;31.29;100056.66;4997674;28;20102;-66
2023/08/12 10:39:32;;;;;;;3.72;1.80;;;;;;;29.46;31.73;100045.22;4997444;28;20049;-67
2023/08/12 10:41:58;;;;;;;3.17;1.88;;;;;;;29.45;32.03;100049.88;4997986;28;20031;-67
2023/08/12 10:44:39;;;;;;;3.03;2.10;;;;;;;29.50;31.03;100044.38;5001932;28;20050;-67
2023/08/12 10:47:09;;;;;;;3.20;2.60;;;;;;;29.52;32.66;100039.47;5001783;28;20061;-67
2023/08/12 10:49:48;;;;;;;2.40;2.03;;;;;;;29.67;33.08;100035.03;5002776;28;20042;-67
2023/08/12 10:52:34;;;;;;;2.40;1.90;;;;;;;29.72;31.00;100032.28;5002298;28;20034;-67
2023/08/12 10:55:22;;;;;;;1.73;1.60;;;;;;;29.58;31.02;100029.34;5001000;28;20050;-67
2023/08/12 10:57:49;;;;;;;3.13;2.08;;;;;;;29.62;31.33;100024.13;5001009;28;20679;-67
2023/08/12 11:00:21;;;;;;;2.60;2.03;;;;;;;29.74;31.71;100028.16;5001730;28;20113;-67
2023/08/12 11:02:51;;;;;;;2.33;2.10;;;;;;;29.66;31.17;100026.03;5002379;28;20386;-66
2023/08/12 11:05:20;;;;;;;2.08;1.90;;;;;;;29.52;31.44;100020.38;5014075;28;20348;-66
2023/08/12 11:07:49;;;;;;;2.13;1.92;;;;;;;29.47;31.31;100023.13;5005592;28;20042;-67
2023/08/12 11:10:17;;;;;;;2.30;2.10;;;;;;;29.60;33.54;100018.16;5000298;28;20061;-67
2023/08/12 11:12:56;;;;;;;3.45;2.60;;;;;;;29.78;31.85;100006.59;5001452;28;20065;-67
2023/08/12 11:15:34;;;;;;;3.15;2.60;;;;;;;29.94;32.74;100010.84;5000192;28;20252;-67
2023/08/12 11:18:07;;;;;;;2.50;2.30;;;;;;;29.91;31.32;100005.13;5001866;28;20049;-66
2023/08/12 11:20:34;;;;;;;2.20;2.00;;;;;;;29.86;31.17;100005.97;5001495;28;20213;-66
2023/08/12 11:23:00;;;;;;;2.88;2.10;;;;;;;29.86;31.16;100003.25;5001204;28;20125;-67